CheckWX is a tool to help pilots better visualize weather data.  It is not intended as a substitute for an official pre-flight weather briefing.

13:04:16 UTC

KBIS METAR
Bismarck Municipal Airport
Bismarck, North Dakota, USA
Current

12 mins ago

KBIS 261252Z 19009KT 5SM BR OVC004 01/00 A3016 RMK AO2 SLP231 T00110000
Observed
Mar-26 @ 12:52 UTC
Wind
  • 190° at 9 KTS
Visibility
5 SM
Flight Rules
LIFR
Conditions
Mist
Cloud Levels
  • Overcast at 400' AGL
Temperature
C / 34°F
Dewpoint
C / 32°F
Humidity
93%
Altimeter
30.16" Hg
Pressure
1023.1 hPa
Previous

1 hour ago

KBIS 261152Z 19009KT 10SM OVC006 01/00 A3017 RMK AO2 SLP236 T00110000 10011 20006 56013
Observed
Mar-26 @ 11:52 UTC
Wind
  • 190° at 9 KTS
Visibility
10 SM
Flight Rules
IFR
Cloud Levels
  • Overcast at 600' AGL
Temperature
C / 34°F
Dewpoint
C / 32°F
Humidity
93%
Altimeter
30.17" Hg
Pressure
1023.6 hPa
Previous

2 hours ago

KBIS 261052Z 19006KT 10SM OVC007 01/M01 A3018 RMK AO2 SLP239 T00111006
Observed
Mar-26 @ 10:52 UTC
Wind
  • 190° at 6 KTS
Visibility
10 SM
Flight Rules
IFR
Cloud Levels
  • Overcast at 700' AGL
Temperature
C / 34°F
Dewpoint
-1°C / 30°F
Humidity
87%
Altimeter
30.18" Hg
Pressure
1023.9 hPa